旭川空港の過去48時間の天気

旭川空港 (Asahikawa (Civil))

現在時刻: 9/16 12:09 JST (9/16 03:09 UTC) 以下の時間は現地時間です。

過去48時間のMETAR気象情報
時間 風向 風速(m/s) 視程 気温(℃) 湿度(%) 気圧(hPa) 天気現象
16 12:00 2 10km以上 21 78 1008
16 11:00 不定 1 10km以上 19 88 1009
16 10:00 不定 1 10km以上 18 94 1009
16 09:50 不定 1 10km以上 17 100 1010
16 09:14 不定 1 5000m 16 100 1010 もや
16 09:00 不定 1 4500m 16 94 1010 もや
16 08:47 北西 2 4500m 15 100 1010 もや
16 08:00 北北西 2 3200m 15 100 1010 もや
16 07:40 2 3100m 15 100 1011 もや
16 07:23 2 4000m 15 100 1011 弱いしゅう雨 もや
16 07:00 2 4500m 15 100 1011 弱いしゅう雨 もや
16 06:40 北西 2 4500m 15 100 1011 弱いしゅう雨 もや
15 20:00 南南西 3 10km以上 17 94 1012
15 19:00 不定 1 10km以上 18 88 1012
15 18:00 西 2 10km以上 19 88 1011
15 17:00 2 10km以上 21 73 1011
15 16:00 北北西 3 10km以上 21 78 1011
15 15:00 北西 2 10km以上 22 69 1011
15 14:00 北北西 3 10km以上 23 65 1011
15 13:00 不定 1 10km以上 22 69 1011
15 12:00 不定 2 10km以上 21 73 1012
15 11:00 不定 1 10km以上 21 78 1012
15 10:00 東北東 2 10km以上 19 88 1012
15 09:00 北西 2 10km以上 18 88 1012
15 08:00 西 3 10km以上 17 100 1012
15 07:00 不定 1 10km以上 17 94 1012 弱いしゅう雨
15 06:40 不定 1 10km以上 16 100 1012 弱いしゅう雨
14 20:00 7 10km以上 19 73 1011
14 19:00 5 10km以上 19 73 1011
14 18:00 5 10km以上 19 73 1011
14 17:00 4 10km以上 20 73 1011
14 16:00 4 10km以上 20 73 1011
14 15:00 南南西 5 10km以上 21 64 1011
14 14:00 6 10km以上 22 57 1011
14 13:00 南南西 6 10km以上 22 57 1012
RJEC 160300Z 10004KT 060V140 9999 FEW010 SCT020 BKN060 21/17 Q1008
RJEC 160200Z VRB01KT 9999 FEW005 SCT050 BKN100 19/17 Q1009
RJEC 160100Z VRB01KT 9999 FEW002 SCT003 BKN050 18/17 Q1009
RJEC 160050Z VRB01KT 9999 FEW002 SCT003 BKN050 17/17 Q1010 RMK 1ST002 4ST003 5CU050 A2983
RJEC 160014Z VRB01KT 5000 BR FEW001 SCT002 BKN003 16/16 Q1010 RMK 1ST001 3ST002 5ST003 A2984 9999N
RJEC 160000Z VRB02KT 4500 BR FEW001 SCT002 BKN003 16/15 Q1010
RJEC 152347Z 32003KT 290V360 4500 BR FEW001 SCT002 BKN003 15/15 Q1010 RMK 2ST001 4ST002 6ST003 A2985 9999N
RJEC 152300Z 33004KT 3200 BR SCT001 BKN002 15/15 Q1010
RJEC 152240Z 35003KT 3100 BR SCT001 BKN002 15/15 Q1011 RMK 3ST001 7ST002 A2985
RJEC 152223Z 36003KT 330V040 4000 -SHRA BR FEW001 BKN002 BKN045 15/15 Q1011 RMK 2ST001 5ST002 7CU045 A2985
RJEC 152200Z 35003KT 4500 -SHRA BR FEW001 SCT002 BKN045 15/15 Q1011
RJEC 152140Z 32003KT 4500 -SHRA BR FEW001 BKN002 BKN040 15/15 Q1011 RMK 2ST001 5ST002 7CU040 A2986
RJEC 151100Z 20005KT 9999 FEW020 17/16 Q1012
RJEC 151000Z VRB01KT 9999 FEW020 SCT/// 18/16 Q1012
RJEC 150900Z 28003KT 9999 FEW020 BKN/// 19/17 Q1011
RJEC 150800Z 36004KT 9999 FEW025 BKN/// 21/16 Q1011
RJEC 150700Z 33005KT 9999 FEW025 BKN/// 21/17 Q1011
RJEC 150600Z 32003KT 290V020 9999 FEW025 BKN/// 22/16 Q1011
RJEC 150500Z 34005KT 310V020 9999 FEW020 SCT030 BKN/// 23/16 Q1011
RJEC 150400Z VRB02KT 9999 FEW015 SCT030 BKN/// 22/16 Q1011
RJEC 150300Z VRB03KT 9999 FEW020 SCT035 BKN/// 21/16 Q1012
RJEC 150200Z VRB02KT 9999 FEW015 SCT030 BKN/// 21/17 Q1012
RJEC 150100Z 06003KT 010V120 9999 FEW008 BKN010 BKN150 19/17 Q1012
RJEC 150000Z 32003KT 270V030 9999 FEW008 SCT035 BKN120 18/16 Q1012
RJEC 142300Z 27005KT 9999 FEW002 BKN020 BKN090 17/17 Q1012
RJEC 142200Z VRB01KT 9999 -SHRA FEW001 SCT010 BKN080 17/16 Q1012
RJEC 142140Z VRB01KT 9999 -SHRA FEW001 SCT010 BKN050 16/16 Q1012 RMK 1ST001 3ST010 5CU050 A2989
RJEC 141100Z 18013KT 9999 FEW035 SCT120 BKN180 19/14 Q1011
RJEC 141000Z 18009KT 9999 FEW035 SCT150 BKN/// 19/14 Q1011
RJEC 140900Z 18010KT 9999 FEW035 SCT150 BKN/// 19/14 Q1011
RJEC 140800Z 17008KT 9999 FEW040 SCT140 BKN180 20/15 Q1011
RJEC 140700Z 18008KT 9999 FEW030 SCT040 BKN180 20/15 Q1011
RJEC 140600Z 20009KT 9999 FEW035 SCT180 BKN/// 21/14 Q1011
RJEC 140500Z 18011KT 9999 FEW040 BKN/// 22/13 Q1011
RJEC 140400Z 21011KT 180V240 9999 FEW040 BKN/// 22/13 Q1012